Time;durP1;ratioP1;P1;durP2;ratioP2;P2;SDS_P1;SDS_P2;PMS_P1;PMS_P2;Temp;Humidity;BMP_temperature;BMP_pressure;BME280_temperature;BME280_humidity;BME280_pressure;Samples;Min_cycle;Max_cycle;Signal;HPM_P1;HPM_P2
2021/03/14 00:00:38;;;;;;;2.40;1.90;;;;;;;8.17;60.79;97546.17;123825;1102;64908;-81
2021/03/14 00:03:18;;;;;;;3.13;2.00;;;;;;;8.15;60.61;97537.48;123497;1102;64915;-81
2021/03/14 00:05:47;;;;;;;4.93;2.83;;;;;;;8.16;61.03;97548.94;123646;1102;64835;-81
2021/03/14 00:08:15;;;;;;;5.67;3.47;;;;;;;8.12;60.96;97546.53;123504;1102;65164;-82
2021/03/14 00:10:44;;;;;;;5.10;3.00;;;;;;;8.12;61.51;97545.70;123883;1101;64890;-84
2021/03/14 00:13:13;;;;;;;2.90;2.50;;;;;;;8.12;61.66;97546.53;123537;1102;64831;-84
2021/03/14 00:15:40;;;;;;;3.67;2.40;;;;;;;8.11;62.42;97546.67;123890;1102;65282;-84
2021/03/14 00:18:07;;;;;;;2.90;2.07;;;;;;;8.12;62.36;97537.73;123517;1102;64991;-83
2021/03/14 00:20:34;;;;;;;3.40;2.60;;;;;;;8.12;62.64;97551.00;123838;1102;64928;-84
2021/03/14 00:23:01;;;;;;;2.97;2.10;;;;;;;8.12;62.57;97525.31;123420;1106;65100;-84
2021/03/14 00:25:27;;;;;;;2.33;1.97;;;;;;;8.14;62.41;97549.08;123483;1102;64898;-84
2021/03/14 00:27:53;;;;;;;4.50;3.07;;;;;;;8.13;62.47;97550.02;123503;1102;64983;-83
2021/03/14 00:30:21;;;;;;;3.02;2.10;;;;;;;8.10;62.35;97547.63;123825;1102;64911;-83
2021/03/14 00:32:47;;;;;;;2.80;1.70;;;;;;;8.06;62.33;97551.50;123398;1105;64898;-84
2021/03/14 00:35:16;;;;;;;4.13;1.90;;;;;;;8.01;61.99;97553.68;123672;1102;64912;-83
2021/03/14 00:37:43;;;;;;;4.17;2.77;;;;;;;7.99;62.20;97558.26;123868;1102;64912;-83
2021/03/14 00:40:09;;;;;;;3.60;2.30;;;;;;;7.95;62.25;97556.80;123507;1102;64974;-83
2021/03/14 00:42:38;;;;;;;3.00;2.40;;;;;;;7.90;62.46;97567.80;123853;1102;64899;-83
2021/03/14 00:45:06;;;;;;;3.10;2.13;;;;;;;7.84;62.68;97585.02;123830;1102;64950;-83
2021/03/14 00:47:34;;;;;;;2.67;1.97;;;;;;;7.80;62.74;97578.27;123888;1102;64972;-83
2021/03/14 00:50:05;;;;;;;2.30;1.90;;;;;;;7.77;62.81;97594.44;123519;1102;64876;-83
2021/03/14 00:52:31;;;;;;;2.50;1.57;;;;;;;7.73;63.17;97608.88;123840;1102;65011;-84
2021/03/14 00:54:58;;;;;;;2.53;1.70;;;;;;;7.69;62.83;97592.37;123809;1102;64867;-83
2021/03/14 00:57:24;;;;;;;1.90;1.40;;;;;;;7.64;62.81;97591.05;123468;1102;64943;-83
2021/03/14 00:59:51;;;;;;;3.15;1.85;;;;;;;7.57;62.74;97593.31;123855;1102;64905;-83
2021/03/14 01:02:17;;;;;;;2.30;1.77;;;;;;;7.49;62.49;97603.66;123825;1102;64883;-84
2021/03/14 01:04:44;;;;;;;3.30;1.33;;;;;;;7.41;62.85;97601.60;123489;1102;64943;-83
2021/03/14 01:07:10;;;;;;;1.62;1.00;;;;;;;7.34;62.79;97605.67;123497;1103;65049;-84
2021/03/14 01:09:37;;;;;;;1.50;0.70;;;;;;;7.28;62.81;97584.95;123805;1102;65036;-84
2021/03/14 01:12:04;;;;;;;1.50;1.10;;;;;;;7.23;62.71;97593.23;123504;1102;65055;-84
2021/03/14 01:14:31;;;;;;;2.27;1.20;;;;;;;7.20;63.00;97587.34;123889;1102;64882;-84
2021/03/14 01:16:57;;;;;;;2.97;1.17;;;;;;;7.16;62.92;97584.09;123511;1102;64981;-84
2021/03/14 01:19:23;;;;;;;2.57;1.43;;;;;;;7.13;63.09;97597.55;123774;1101;64888;-83
2021/03/14 01:21:50;;;;;;;2.30;1.33;;;;;;;7.07;63.13;97595.36;123481;1102;64917;-84
2021/03/14 01:24:16;;;;;;;1.77;1.17;;;;;;;7.04;63.11;97593.79;123509;1104;64949;-83
2021/03/14 01:26:42;;;;;;;3.63;1.70;;;;;;;7.02;63.01;97593.05;123446;1102;64972;-83
2021/03/14 01:29:09;;;;;;;3.20;1.97;;;;;;;7.00;63.24;97602.07;123881;1102;64905;-84
2021/03/14 01:31:35;;;;;;;3.30;1.60;;;;;;;6.95;63.20;97605.09;123501;1102;65019;-84
2021/03/14 01:34:02;;;;;;;2.30;1.50;;;;;;;6.92;63.13;97591.20;123452;1102;65377;-83
2021/03/14 01:36:28;;;;;;;3.07;2.13;;;;;;;6.91;63.12;97597.48;123857;1102;64907;-84
2021/03/14 01:38:54;;;;;;;2.90;1.25;;;;;;;6.90;62.87;97575.45;123850;1102;64905;-83
2021/03/14 01:41:21;;;;;;;4.12;2.05;;;;;;;6.91;62.92;97577.13;123847;1102;64905;-83
2021/03/14 01:43:47;;;;;;;5.73;1.30;;;;;;;6.89;62.90;97578.20;123471;1102;64873;-83
2021/03/14 01:46:14;;;;;;;2.90;1.43;;;;;;;6.86;62.94;97578.44;123806;1102;65350;-84
2021/03/14 01:48:40;;;;;;;3.03;1.13;;;;;;;6.84;62.79;97583.83;123838;1102;64946;-84
2021/03/14 01:51:07;;;;;;;1.70;1.43;;;;;;;6.83;62.94;97589.27;123466;1102;64927;-84
2021/03/14 01:53:34;;;;;;;2.47;1.30;;;;;;;6.78;62.70;97579.00;123483;1102;64908;-82
2021/03/14 01:56:01;;;;;;;2.27;1.90;;;;;;;6.75;62.92;97572.13;123808;1102;64886;-83
2021/03/14 01:58:27;;;;;;;1.57;1.33;;;;;;;6.70;63.22;97561.03;123799;1102;64908;-83
2021/03/14 02:00:55;;;;;;;4.10;1.30;;;;;;;6.69;62.70;97566.43;123836;1101;65015;-83
2021/03/14 02:03:23;;;;;;;3.65;1.10;;;;;;;6.67;62.75;97563.08;123749;1102;64908;-82
2021/03/14 02:05:51;;;;;;;4.00;1.20;;;;;;;6.66;62.67;97566.66;123465;1102;64917;-82
2021/03/14 02:08:19;;;;;;;2.03;1.23;;;;;;;6.66;62.36;97556.08;123554;1102;64911;-83
2021/03/14 02:10:52;;;;;;;2.33;1.30;;;;;;;6.65;62.44;97562.34;123833;1102;65045;-82
2021/03/14 02:13:21;;;;;;;3.90;1.30;;;;;;;6.63;62.28;97565.09;123852;1102;64975;-82
2021/03/14 02:16:05;;;;;;;4.87;1.90;;;;;;;6.63;62.41;97565.09;123851;1102;64905;-82
2021/03/14 02:18:33;;;;;;;2.87;1.33;;;;;;;6.60;62.19;97563.52;123824;1102;64876;-83
2021/03/14 02:21:00;;;;;;;4.03;1.80;;;;;;;6.58;62.20;97573.39;123872;1102;64860;-82
2021/03/14 02:23:32;;;;;;;2.30;1.50;;;;;;;6.56;62.46;97585.05;123810;1102;65215;-83
2021/03/14 02:26:04;;;;;;;2.40;1.75;;;;;;;6.51;62.47;97587.19;123840;1102;65003;-82
2021/03/14 02:28:31;;;;;;;3.50;1.90;;;;;;;6.50;62.36;97580.18;123863;1102;65013;-83
2021/03/14 02:30:59;;;;;;;2.53;1.53;;;;;;;6.48;62.40;97559.14;123524;1102;64991;-83
2021/03/14 02:33:30;;;;;;;3.33;1.67;;;;;;;6.46;62.32;97557.56;123793;1102;64924;-82
2021/03/14 02:35:58;;;;;;;2.93;1.70;;;;;;;6.44;62.31;97554.17;123454;1102;65013;-83
2021/03/14 02:38:26;;;;;;;2.83;2.23;;;;;;;6.44;62.06;97572.70;123842;1102;64941;-83
2021/03/14 02:40:55;;;;;;;2.57;1.67;;;;;;;6.42;62.53;97558.73;123788;1101;65262;-84
2021/03/14 02:43:24;;;;;;;2.93;1.50;;;;;;;6.43;62.25;97571.86;123880;1102;64860;-84
2021/03/14 02:45:53;;;;;;;3.17;1.50;;;;;;;6.45;62.21;97564.66;123916;1102;64892;-85
2021/03/14 02:48:21;;;;;;;4.00;1.80;;;;;;;6.45;62.07;97569.08;123840;1102;64905;-84
2021/03/14 02:50:48;;;;;;;5.57;1.80;;;;;;;6.45;62.19;97563.80;123510;1105;65142;-84
2021/03/14 02:53:17;;;;;;;4.33;2.20;;;;;;;6.45;62.33;97558.50;123847;1102;64905;-85
2021/03/14 02:55:44;;;;;;;3.77;1.90;;;;;;;6.45;62.30;97542.62;123500;1102;65399;-84
2021/03/14 02:58:13;;;;;;;3.53;2.03;;;;;;;6.43;62.06;97563.08;123822;1102;64937;-84
2021/03/14 03:00:43;;;;;;;4.47;2.50;;;;;;;6.42;61.84;97558.73;123480;1102;64895;-84
2021/03/14 03:03:10;;;;;;;5.70;3.20;;;;;;;6.40;62.11;97566.80;123469;1102;64982;-83
2021/03/14 03:05:38;;;;;;;6.17;2.20;;;;;;;6.39;62.11;97562.44;123480;1102;64975;-84
2021/03/14 03:08:06;;;;;;;6.60;2.20;;;;;;;6.37;62.19;97559.05;123892;1102;64908;-84
2021/03/14 03:10:45;;;;;;;4.23;1.67;;;;;;;6.36;62.11;97565.31;123831;1102;64994;-84
2021/03/14 03:13:13;;;;;;;3.40;1.70;;;;;;;6.34;62.24;97583.09;123878;1102;65049;-84
2021/03/14 03:15:40;;;;;;;2.23;1.37;;;;;;;6.31;62.26;97570.09;123818;1102;64924;-84
2021/03/14 03:18:09;;;;;;;2.87;1.53;;;;;;;6.28;62.26;97581.75;123827;1102;64911;-83
2021/03/14 03:20:36;;;;;;;5.03;1.97;;;;;;;6.25;62.23;97579.33;123517;1102;64968;-85
2021/03/14 03:23:02;;;;;;;3.40;1.80;;;;;;;6.24;62.10;97598.81;123437;1102;64953;-85
2021/03/14 03:25:29;;;;;;;3.73;1.70;;;;;;;6.23;62.21;97599.75;123878;1102;65273;-86
2021/03/14 03:27:56;;;;;;;5.50;1.87;;;;;;;6.23;62.50;97591.81;123467;1102;65000;-86
2021/03/14 03:30:26;;;;;;;3.23;1.80;;;;;;;6.24;62.19;97596.17;123496;1105;64992;-87
2021/03/14 03:32:53;;;;;;;4.10;1.70;;;;;;;6.26;62.28;97601.33;123911;1102;64901;-85
2021/03/14 03:35:21;;;;;;;3.40;1.60;;;;;;;6.25;62.36;97597.84;123469;1105;64829;-86
2021/03/14 03:37:49;;;;;;;3.57;1.90;;;;;;;6.26;62.33;97590.75;123408;1102;65061;-85
2021/03/14 03:40:20;;;;;;;4.55;2.25;;;;;;;6.24;62.54;97592.65;123864;1102;65145;-85
2021/03/14 03:43:01;;;;;;;4.00;2.13;;;;;;;6.22;62.32;97594.59;123452;1103;64902;-85
2021/03/14 03:45:30;;;;;;;5.13;1.60;;;;;;;6.18;62.54;97599.23;123805;1102;64934;-85
2021/03/14 03:47:58;;;;;;;;;;;;;;;6.17;62.72;97604.65;123554;1102;64943;-84
2021/03/14 03:50:26;;;;;;;2.47;1.90;;;;;;;6.12;62.29;97608.45;123840;1102;65006;-85
2021/03/14 03:52:55;;;;;;;5.60;2.30;;;;;;;6.09;62.58;97603.38;123502;1102;64912;-86
2021/03/14 03:55:23;;;;;;;4.23;2.40;;;;;;;6.05;62.31;97599.25;123471;1105;64908;-85
2021/03/14 03:57:51;;;;;;;5.07;2.70;;;;;;;6.02;63.11;97601.28;123530;1104;64872;-86
2021/03/14 04:00:19;;;;;;;5.77;3.00;;;;;;;5.97;63.09;97598.11;123801;1102;64882;-86
2021/03/14 04:02:46;;;;;;;6.63;4.53;;;;;;;5.89;62.96;97594.17;123814;1102;64988;-85
2021/03/14 04:05:16;;;;;;;8.40;5.27;;;;;;;5.83;63.10;97584.04;123573;1105;64927;-85
2021/03/14 04:07:46;;;;;;;10.60;7.08;;;;;;;5.76;63.25;97585.41;123484;1102;64908;-85
2021/03/14 04:10:18;;;;;;;10.73;6.10;;;;;;;5.72;63.46;97579.51;123468;1102;64911;-83
2021/03/14 04:12:47;;;;;;;9.73;6.97;;;;;;;5.68;63.52;97580.66;123405;1102;64840;-83
2021/03/14 04:15:15;;;;;;;7.80;5.00;;;;;;;5.65;63.43;97591.45;123437;1102;64940;-84
2021/03/14 04:17:43;;;;;;;5.30;4.77;;;;;;;5.64;63.49;97586.29;123489;1102;65076;-84
2021/03/14 04:20:18;;;;;;;4.93;3.60;;;;;;;5.64;63.57;97583.64;123450;1102;64889;-83
2021/03/14 04:22:54;;;;;;;6.60;4.10;;;;;;;5.67;63.55;97586.07;123466;1102;65010;-83
2021/03/14 04:25:22;;;;;;;13.10;7.93;;;;;;;5.69;63.79;97590.30;123400;1102;64883;-83
2021/03/14 04:27:51;;;;;;;14.93;8.37;;;;;;;5.71;63.95;97598.97;123467;1102;65039;-83
2021/03/14 04:30:20;;;;;;;13.67;8.43;;;;;;;5.70;63.63;97601.71;123494;1102;64929;-83
2021/03/14 04:32:47;;;;;;;11.73;6.60;;;;;;;5.70;63.84;97596.42;123486;1102;64934;-83
2021/03/14 04:35:14;;;;;;;11.37;5.37;;;;;;;5.70;63.98;97605.20;123356;1102;64937;-83
2021/03/14 04:37:41;;;;;;;8.73;4.23;;;;;;;5.68;64.21;97588.59;123409;1105;65019;-84
2021/03/14 04:40:10;;;;;;;10.50;5.53;;;;;;;5.66;64.26;97579.08;123426;1102;64891;-86
2021/03/14 04:42:40;;;;;;;12.75;4.85;;;;;;;5.65;64.36;97582.68;123507;1102;64984;-83
2021/03/14 04:45:08;;;;;;;13.13;5.70;;;;;;;5.62;64.05;97574.97;123407;1102;64905;-83
2021/03/14 04:47:35;;;;;;;18.87;8.23;;;;;;;5.60;64.29;97574.23;123397;1102;64994;-83
2021/03/14 04:50:04;;;;;;;16.93;7.57;;;;;;;5.57;64.38;97572.64;123466;1101;64864;-83
2021/03/14 04:52:31;;;;;;;25.90;13.13;;;;;;;5.53;64.44;97576.47;123422;1102;64990;-84
2021/03/14 04:55:00;;;;;;;16.00;8.23;;;;;;;5.50;64.61;97574.01;123417;1102;64911;-83
2021/03/14 04:57:28;;;;;;;10.60;6.23;;;;;;;5.47;64.78;97582.16;123477;1102;64908;-83
2021/03/14 04:59:55;;;;;;;11.13;6.13;;;;;;;5.45;64.87;97584.05;123445;1102;64892;-82
2021/03/14 05:02:23;;;;;;;16.10;8.27;;;;;;;5.44;65.03;97577.92;123431;1102;64834;-84
2021/03/14 05:04:52;;;;;;;50.20;21.13;;;;;;;5.45;64.88;97582.28;123473;1102;64936;-83
2021/03/14 05:07:20;;;;;;;56.92;24.95;;;;;;;5.44;64.70;97579.73;123538;1102;65292;-84
2021/03/14 05:09:48;;;;;;;39.03;20.10;;;;;;;5.42;65.02;97590.39;123837;1102;65362;-85
2021/03/14 05:12:17;;;;;;;26.27;13.83;;;;;;;5.40;64.76;97581.75;123859;1102;64908;-84
2021/03/14 05:14:45;;;;;;;19.70;11.30;;;;;;;5.38;65.03;97585.44;123489;1102;64940;-83
2021/03/14 05:17:12;;;;;;;10.60;7.10;;;;;;;5.38;65.10;97588.08;123857;1102;65019;-83
2021/03/14 05:19:39;;;;;;;13.87;7.03;;;;;;;5.36;65.01;97580.25;123803;1102;65008;-83
2021/03/14 05:22:05;;;;;;;13.85;7.40;;;;;;;5.35;65.09;97580.38;123470;1102;64889;-83
2021/03/14 05:24:33;;;;;;;18.60;10.73;;;;;;;5.33;64.76;97574.34;123516;1102;64861;-82
2021/03/14 05:27:03;;;;;;;42.03;17.87;;;;;;;5.31;65.08;97570.95;123843;1102;65294;-83
2021/03/14 05:29:30;;;;;;;87.13;34.23;;;;;;;5.31;65.38;97558.59;123831;1102;65317;-83
2021/03/14 05:31:58;;;;;;;63.45;29.50;;;;;;;5.34;64.90;97565.45;123851;1102;64934;-83
2021/03/14 05:34:25;;;;;;;51.07;23.67;;;;;;;5.38;65.53;97557.22;123476;1102;64937;-83
2021/03/14 05:36:52;;;;;;;32.07;18.53;;;;;;;5.44;65.30;97554.14;123844;1102;64911;-83
2021/03/14 05:39:18;;;;;;;22.13;13.40;;;;;;;5.55;64.86;97560.48;123498;1102;64882;-83
2021/03/14 05:41:45;;;;;;;16.60;8.53;;;;;;;5.63;65.08;97561.63;123516;1102;65007;-83
2021/03/14 05:44:12;;;;;;;16.30;8.87;;;;;;;5.75;65.24;97564.39;123462;1102;64991;-83
2021/03/14 05:46:39;;;;;;;14.60;8.60;;;;;;;5.84;64.97;97563.73;123837;1102;64933;-83
2021/03/14 05:49:07;;;;;;;17.03;9.30;;;;;;;5.90;64.63;97558.03;123832;1102;64933;-83
2021/03/14 05:51:35;;;;;;;15.40;9.05;;;;;;;5.98;64.80;97557.48;123511;1102;64934;-83
2021/03/14 05:54:02;;;;;;;17.93;9.50;;;;;;;6.02;64.79;97559.81;123495;1102;65046;-82
2021/03/14 05:56:31;;;;;;;20.53;11.23;;;;;;;6.06;64.80;97573.68;123830;1102;65011;-83
2021/03/14 05:58:59;;;;;;;32.47;19.53;;;;;;;6.08;64.81;97571.74;123790;1102;64981;-83
2021/03/14 06:01:29;;;;;;;38.93;29.80;;;;;;;6.14;64.76;97593.33;123866;1102;64883;-84
2021/03/14 06:03:58;;;;;;;40.70;30.63;;;;;;;6.18;64.52;97595.74;123857;1102;64956;-84
2021/03/14 06:06:26;;;;;;;33.05;28.00;;;;;;;6.24;64.31;97595.30;123501;1102;65011;-84
2021/03/14 06:08:55;;;;;;;25.97;18.47;;;;;;;6.27;64.39;97587.16;123482;1102;64950;-84
2021/03/14 06:11:21;;;;;;;22.13;14.63;;;;;;;6.30;64.51;97590.42;123887;1102;64921;-84
2021/03/14 06:13:48;;;;;;;21.83;12.73;;;;;;;6.31;64.32;97573.58;123871;1102;64892;-83
2021/03/14 06:16:15;;;;;;;25.80;14.10;;;;;;;6.30;64.52;97573.71;123840;1102;64908;-83
2021/03/14 06:18:42;;;;;;;12.83;7.70;;;;;;;6.27;64.47;97574.77;123818;1102;65052;-84
2021/03/14 06:21:24;;;;;;;11.40;7.40;;;;;;;6.25;64.75;97581.97;123492;1102;64994;-86
2021/03/14 06:24:10;;;;;;;14.67;8.00;;;;;;;6.26;64.56;97585.45;123841;1102;64837;-85
2021/03/14 06:26:45;;;;;;;16.57;9.57;;;;;;;6.28;64.74;97586.20;123844;1102;64985;-85
2021/03/14 06:29:18;;;;;;;16.43;9.47;;;;;;;6.32;64.46;97591.16;123795;1102;64851;-85
2021/03/14 06:31:48;;;;;;;16.35;8.35;;;;;;;6.38;64.51;97593.36;123802;1102;64879;-85
2021/03/14 06:34:34;;;;;;;15.60;8.63;;;;;;;6.52;64.61;97597.64;123861;1102;64917;-85
2021/03/14 06:37:11;;;;;;;18.67;7.67;;;;;;;6.68;64.65;97605.30;123786;1102;65293;-85
2021/03/14 06:39:40;;;;;;;15.03;8.40;;;;;;;6.80;64.35;97604.41;123923;1102;64870;-85
2021/03/14 06:42:07;;;;;;;15.90;9.40;;;;;;;6.89;63.97;97602.88;123479;1103;64908;-85
2021/03/14 06:44:36;;;;;;;16.37;9.20;;;;;;;6.93;63.72;97604.35;123437;1102;65055;-86
2021/03/14 06:47:05;;;;;;;14.67;8.97;;;;;;;7.00;64.46;97597.64;123828;1102;64954;-84
2021/03/14 06:49:37;;;;;;;15.05;9.00;;;;;;;7.03;64.12;97601.87;123839;1101;65212;-83
2021/03/14 06:52:05;;;;;;;14.50;8.87;;;;;;;7.05;63.69;97607.87;123512;1105;64985;-83
2021/03/14 06:54:40;;;;;;;13.67;9.00;;;;;;;7.06;63.73;97611.36;123469;1102;64914;-83
2021/03/14 06:57:20;;;;;;;16.33;9.40;;;;;;;7.07;63.36;97618.36;123819;1102;65057;-83
2021/03/14 06:59:50;;;;;;;16.50;8.80;;;;;;;7.06;63.19;97619.30;123809;1102;64908;-83
2021/03/14 07:02:20;;;;;;;12.90;8.23;;;;;;;7.08;63.28;97620.88;123842;1102;64911;-83
2021/03/14 07:05:00;;;;;;;15.47;7.73;;;;;;;7.16;63.03;97615.02;123802;1102;64927;-83
2021/03/14 07:07:31;;;;;;;13.93;7.40;;;;;;;7.30;62.95;97638.69;123692;1102;64886;-83
2021/03/14 07:10:05;;;;;;;15.53;8.10;;;;;;;7.43;62.97;97631.49;123525;1102;65023;-83
2021/03/14 07:12:32;;;;;;;16.03;9.03;;;;;;;7.58;62.94;97626.84;123839;1102;64828;-83
2021/03/14 07:15:19;;;;;;;13.23;7.57;;;;;;;7.69;62.67;97629.50;123882;1102;64913;-83
2021/03/14 07:17:51;;;;;;;15.23;8.37;;;;;;;7.81;62.40;97635.64;123849;1102;64893;-83
2021/03/14 07:20:20;;;;;;;14.40;8.27;;;;;;;7.93;61.99;97636.52;123413;1102;64937;-84
2021/03/14 07:23:06;;;;;;;14.85;8.55;;;;;;;8.07;61.76;97640.73;123453;1102;64997;-84
2021/03/14 07:25:39;;;;;;;14.23;7.47;;;;;;;8.19;61.89;97634.48;123842;1102;65017;-84
2021/03/14 07:28:06;;;;;;;14.20;8.27;;;;;;;8.31;61.72;97638.79;123484;1102;64943;-84
2021/03/14 07:30:33;;;;;;;11.93;6.87;;;;;;;8.43;61.03;97638.83;123453;1102;64908;-81
2021/03/14 07:32:59;;;;;;;15.33;8.30;;;;;;;8.52;61.10;97641.58;123413;1102;64997;-84
2021/03/14 07:35:27;;;;;;;16.37;9.00;;;;;;;8.63;61.03;97638.05;123401;1102;65014;-84
2021/03/14 07:37:55;;;;;;;11.43;6.47;;;;;;;8.77;60.39;97650.23;123791;1102;64957;-83
2021/03/14 07:40:24;;;;;;;10.27;6.17;;;;;;;8.87;59.59;97645.00;123406;1102;64892;-82
2021/03/14 07:43:00;;;;;;;9.87;6.03;;;;;;;8.89;59.71;97643.91;123540;1102;64915;-82
2021/03/14 07:45:28;;;;;;;13.03;8.40;;;;;;;8.97;59.25;97643.28;123564;1103;64911;-82
2021/03/14 07:47:56;;;;;;;11.83;7.50;;;;;;;9.06;59.30;97645.20;123531;1102;64963;-83
2021/03/14 07:50:35;;;;;;;9.40;5.43;;;;;;;9.13;59.00;97646.36;123513;1102;64933;-81
2021/03/14 07:53:14;;;;;;;7.30;5.30;;;;;;;9.19;58.70;97648.53;123823;1102;64883;-82
2021/03/14 07:55:50;;;;;;;9.00;3.83;;;;;;;9.25;57.64;97656.97;123448;1102;65241;-84
2021/03/14 07:58:22;;;;;;;6.40;4.10;;;;;;;9.23;58.25;97665.05;123526;1102;65020;-83
2021/03/14 08:00:48;;;;;;;5.53;3.77;;;;;;;9.28;57.87;97670.00;123515;1102;64985;-90
2021/03/14 08:03:15;;;;;;;5.40;2.93;;;;;;;9.33;58.17;97670.46;123634;1102;65033;-85
2021/03/14 08:05:51;;;;;;;6.30;3.50;;;;;;;9.42;57.33;97672.34;123514;1102;64918;-85
2021/03/14 08:08:23;;;;;;;3.87;1.83;;;;;;;9.41;56.89;97676.82;123448;1102;64907;-85
2021/03/14 08:10:51;;;;;;;4.47;2.20;;;;;;;9.38;56.68;97689.54;123866;1102;65360;-85
2021/03/14 08:13:41;;;;;;;4.90;2.60;;;;;;;9.38;56.81;97692.20;123785;1101;65464;-85
2021/03/14 08:16:08;;;;;;;;;;;;;;;9.40;56.70;97698.20;123556;1102;65007;-84
2021/03/14 08:18:39;;;;;;;7.23;3.27;;;;;;;9.41;57.02;97700.75;123486;1102;64940;-83
2021/03/14 08:21:07;;;;;;;4.83;2.67;;;;;;;9.47;56.75;97707.37;123887;1102;64962;-84
2021/03/14 08:23:46;;;;;;;3.57;2.10;;;;;;;9.49;56.71;97707.26;123564;1102;64913;-83
2021/03/14 08:26:20;;;;;;;2.50;1.90;;;;;;;9.54;55.96;97700.58;123479;1102;65260;-84
2021/03/14 08:29:10;;;;;;;3.03;1.90;;;;;;;9.53;55.64;97704.22;123851;1102;64950;-83
2021/03/14 08:31:38;;;;;;;3.50;2.10;;;;;;;9.58;54.92;97703.81;123814;1102;64981;-83
2021/03/14 08:34:07;;;;;;;8.03;3.57;;;;;;;9.62;56.15;97698.12;123931;1102;64885;-84
2021/03/14 08:36:39;;;;;;;4.30;2.05;;;;;;;9.65;55.08;97711.16;123917;1102;64902;-84
2021/03/14 08:39:21;;;;;;;3.50;2.25;;;;;;;9.70;55.42;97718.77;123590;1102;64973;-84
2021/03/14 08:41:58;;;;;;;4.80;2.53;;;;;;;9.74;55.25;97728.19;123803;1102;64927;-84
2021/03/14 08:44:41;;;;;;;6.97;3.30;;;;;;;9.77;55.37;97724.39;123846;1102;64908;-84
2021/03/14 08:47:13;;;;;;;3.53;2.43;;;;;;;9.81;55.66;97718.69;123878;1102;64899;-84
2021/03/14 08:49:52;;;;;;;2.93;2.00;;;;;;;9.77;54.40;97721.73;123476;1102;65007;-85
2021/03/14 08:52:20;;;;;;;3.37;2.20;;;;;;;9.60;54.48;97716.02;123915;1102;65010;-86
2021/03/14 08:54:54;;;;;;;3.67;1.70;;;;;;;9.51;55.22;97719.45;124579;1102;64835;-95
2021/03/14 08:57:24;;;;;;;2.87;1.87;;;;;;;9.52;55.36;97701.68;124799;1105;64917;-91
2021/03/14 08:59:57;;;;;;;3.53;1.77;;;;;;;9.53;55.55;97708.67;123790;1102;64878;-92
2021/03/14 09:02:35;;;;;;;3.07;1.60;;;;;;;9.59;55.63;97711.68;125928;1096;63803;-96
2021/03/14 09:07:31;;;;;;;4.10;2.52;;;;;;;9.66;55.40;97712.00;124851;1102;64860;-96
2021/03/14 09:10:30;;;;;;;4.60;3.03;;;;;;;9.76;55.78;97715.58;124028;1105;64893;-92
2021/03/14 09:12:59;;;;;;;3.00;1.83;;;;;;;9.77;54.84;97727.92;124094;1102;64930;-85
2021/03/14 09:15:25;;;;;;;3.93;2.27;;;;;;;9.75;55.29;97734.34;124400;1102;64888;-93
2021/03/14 09:17:58;;;;;;;2.77;2.03;;;;;;;9.76;54.86;97728.04;124442;1102;64905;-93
2021/03/14 09:20:25;;;;;;;3.43;2.10;;;;;;;9.85;55.85;97725.45;124228;1102;64981;-84
2021/03/14 09:22:52;;;;;;;3.70;2.17;;;;;;;9.99;55.82;97710.14;124119;1102;64905;-91
2021/03/14 09:25:19;;;;;;;3.37;2.33;;;;;;;10.10;55.29;97710.89;124155;1102;65000;-95
2021/03/14 09:27:48;;;;;;;3.27;2.30;;;;;;;10.20;54.42;97705.63;124035;1102;65429;-87
2021/03/14 09:30:19;;;;;;;4.37;2.37;;;;;;;10.37;55.21;97706.02;124094;1102;65043;-87
2021/03/14 09:32:51;;;;;;;3.07;1.90;;;;;;;10.44;53.71;97708.02;123537;1102;64908;-82
2021/03/14 09:35:32;;;;;;;3.27;2.10;;;;;;;10.35;54.09;97724.81;123947;1102;64956;-83
2021/03/14 09:38:25;;;;;;;4.37;2.30;;;;;;;10.23;54.12;97715.17;124036;1102;65004;-83
2021/03/14 09:40:52;;;;;;;2.47;1.80;;;;;;;10.14;53.30;97727.47;123967;1102;64895;-85
2021/03/14 09:43:22;;;;;;;4.30;2.50;;;;;;;10.03;54.47;97722.19;123972;1102;64943;-86
2021/03/14 09:46:02;;;;;;;3.37;1.95;;;;;;;9.97;54.56;97718.23;123935;1103;64899;-82
2021/03/14 09:48:28;;;;;;;;;;;;;;;9.95;55.42;97719.34;123925;1102;65328;-87
2021/03/14 09:50:57;;;;;;;2.33;2.03;;;;;;;9.95;54.81;97740.63;124489;1100;64905;-83
2021/03/14 09:53:47;;;;;;;4.28;2.35;;;;;;;9.94;55.18;97736.30;124342;1102;64908;-93
2021/03/14 09:56:17;;;;;;;3.50;2.33;;;;;;;9.89;55.21;97745.50;124592;1102;64885;-95
2021/03/14 09:58:46;;;;;;;2.50;2.30;;;;;;;9.86;55.30;97753.74;124217;1105;64963;-88
2021/03/14 10:01:12;;;;;;;3.70;2.57;;;;;;;9.77;55.31;97764.30;124235;1102;64908;-94
2021/03/14 10:03:40;;;;;;;3.37;2.27;;;;;;;9.58;55.11;97771.15;125197;1106;64962;-95
2021/03/14 10:06:07;;;;;;;3.00;2.27;;;;;;;9.54;55.92;97780.37;126065;1099;62844;-92
2021/03/14 10:08:36;;;;;;;3.63;2.73;;;;;;;9.58;56.36;97767.65;123909;1102;64984;-81
2021/03/14 10:11:13;;;;;;;4.30;2.97;;;;;;;9.68;55.98;97774.73;123435;1102;64907;-80
2021/03/14 10:13:44;;;;;;;5.30;3.27;;;;;;;9.70;56.17;97784.42;123809;1102;64899;-81
2021/03/14 10:16:13;;;;;;;6.63;4.47;;;;;;;9.74;56.08;97788.51;123474;1102;64914;-80
2021/03/14 10:18:41;;;;;;;6.20;4.33;;;;;;;9.85;56.24;97769.86;123955;1102;64986;-82
2021/03/14 10:21:21;;;;;;;6.93;5.37;;;;;;;10.03;55.78;97778.09;123394;1102;64978;-81
2021/03/14 10:23:49;;;;;;;5.40;3.90;;;;;;;10.16;55.28;97785.89;123401;1103;65052;-79
2021/03/14 10:26:17;;;;;;;6.53;4.93;;;;;;;10.10;54.84;97792.58;123536;1102;65007;-79
2021/03/14 10:28:47;;;;;;;4.03;3.43;;;;;;;10.00;55.31;97784.52;123392;1102;64950;-81
2021/03/14 10:31:15;;;;;;;4.90;3.30;;;;;;;10.04;55.62;97793.11;123900;1102;64930;-81
2021/03/14 10:33:44;;;;;;;5.03;4.00;;;;;;;10.07;55.36;97804.33;123394;1102;65339;-81
2021/03/14 10:36:15;;;;;;;4.05;3.05;;;;;;;10.05;56.03;97802.77;123817;1101;64985;-81
2021/03/14 10:38:44;;;;;;;6.30;3.50;;;;;;;9.99;55.69;97808.61;123432;1106;64982;-80
2021/03/14 10:41:16;;;;;;;4.90;3.77;;;;;;;9.91;55.28;97805.75;123888;1102;64982;-81
2021/03/14 10:44:01;;;;;;;4.17;2.90;;;;;;;9.82;55.07;97812.66;123472;1102;64914;-80
2021/03/14 10:46:42;;;;;;;5.53;4.07;;;;;;;9.68;55.47;97803.16;123863;1102;64931;-80
2021/03/14 10:49:13;;;;;;;6.50;4.00;;;;;;;9.72;56.17;97796.63;123507;1102;65069;-81
2021/03/14 10:51:42;;;;;;;7.17;4.23;;;;;;;9.90;56.03;97786.28;123843;1102;64897;-81
2021/03/14 10:54:13;;;;;;;9.47;5.27;;;;;;;10.10;55.61;97782.77;123459;1102;64984;-81
2021/03/14 10:56:50;;;;;;;6.70;4.27;;;;;;;10.27;55.63;97783.19;123847;1102;64905;-80
2021/03/14 10:59:31;;;;;;;7.20;4.50;;;;;;;10.38;54.91;97788.46;123393;1102;65033;-81
2021/03/14 11:02:34;;;;;;;7.30;4.10;;;;;;;10.52;54.67;97795.27;123823;1101;64917;-80
2021/03/14 11:05:00;;;;;;;5.37;3.83;;;;;;;10.55;53.95;97787.00;123407;1102;64908;-81
2021/03/14 11:07:29;;;;;;;6.47;3.87;;;;;;;10.58;54.79;97792.05;123910;1102;64965;-81
2021/03/14 11:10:05;;;;;;;4.90;3.63;;;;;;;10.70;54.29;97791.01;123461;1101;64888;-81
2021/03/14 11:12:36;;;;;;;6.63;4.00;;;;;;;10.80;54.28;97795.55;123466;1102;65036;-81
2021/03/14 11:15:04;;;;;;;6.83;4.07;;;;;;;10.84;54.07;97799.63;123799;1102;64979;-79
2021/03/14 11:17:36;;;;;;;4.77;3.63;;;;;;;10.76;53.39;97786.96;123729;1102;65292;-80
2021/03/14 11:20:07;;;;;;;5.37;3.80;;;;;;;10.70;52.94;97790.17;123857;1102;64886;-80
2021/03/14 11:22:33;;;;;;;7.07;4.63;;;;;;;10.74;53.19;97784.45;123839;1102;64908;-81
2021/03/14 11:24:59;;;;;;;4.37;3.70;;;;;;;10.75;53.52;97788.79;123796;1102;64825;-81
2021/03/14 11:27:26;;;;;;;4.20;2.67;;;;;;;10.68;53.19;97792.12;123492;1102;64910;-79
2021/03/14 11:29:52;;;;;;;4.27;2.90;;;;;;;10.63;52.90;97786.34;123439;1102;64902;-79
2021/03/14 11:32:19;;;;;;;4.50;2.87;;;;;;;10.59;52.99;97783.11;123809;1102;64902;-81
2021/03/14 11:34:46;;;;;;;5.83;3.40;;;;;;;10.61;52.67;97778.50;123425;1102;64907;-82
2021/03/14 11:37:15;;;;;;;4.00;3.60;;;;;;;10.63;53.17;97776.52;123805;1102;65059;-80
2021/03/14 11:39:42;;;;;;;5.27;3.33;;;;;;;10.55;53.04;97782.51;123822;1101;64923;-80
2021/03/14 11:42:10;;;;;;;3.67;2.83;;;;;;;10.47;53.23;97779.66;123848;1102;65140;-81
2021/03/14 11:44:37;;;;;;;4.83;3.30;;;;;;;10.38;53.34;97788.46;123828;1102;64834;-81